Time;durP1;ratioP1;P1;durP2;ratioP2;P2;SDS_P1;SDS_P2;PMS_P1;PMS_P2;Temp;Humidity;BMP_temperature;BMP_pressure;BME280_temperature;BME280_humidity;BME280_pressure;Samples;Min_cycle;Max_cycle;Signal;HPM_P1;HPM_P2
2022/11/10 00:00:32;;;;;;;50.20;30.60;;;;;;;7.19;85.81;100050.85;101009;1292;95721;-85
2022/11/10 00:03:18;;;;;;;59.30;31.90;;;;;;;7.20;85.83;100047.17;100098;1288;111000;-83
2022/11/10 00:06:06;;;;;;;52.30;32.30;;;;;;;7.24;85.85;100040.16;99969;1291;138753;-84
2022/11/10 00:08:51;;;;;;;50.50;29.70;;;;;;;7.30;85.74;100027.25;100085;1288;97906;-84
2022/11/10 00:11:37;;;;;;;52.10;31.30;;;;;;;7.32;85.66;100030.84;99949;1289;138636;-84
2022/11/10 00:17:26;;;;;;;49.10;30.00;;;;;;;7.35;85.44;100043.38;100015;1296;138406;-84
2022/11/10 00:20:12;;;;;;;49.40;29.90;;;;;;;7.37;85.54;100035.23;100101;1288;107280;-83
2022/11/10 00:22:58;;;;;;;52.70;29.70;;;;;;;7.40;85.53;100037.23;99953;1289;138713;-83
2022/11/10 00:25:43;;;;;;;55.20;31.40;;;;;;;7.42;85.52;100049.98;100098;1288;107006;-82
2022/11/10 00:28:31;;;;;;;51.40;29.80;;;;;;;7.43;85.17;100057.92;100006;1295;138862;-82
2022/11/10 00:31:17;;;;;;;49.70;29.90;;;;;;;7.45;85.23;100052.69;100104;1281;112328;-84
2022/11/10 00:34:03;;;;;;;48.40;29.00;;;;;;;7.48;85.18;100060.75;99969;1282;138967;-82
2022/11/10 00:36:48;;;;;;;50.20;30.10;;;;;;;7.48;85.19;100062.48;100074;1281;97881;-83
2022/11/10 00:39:35;;;;;;;56.60;30.90;;;;;;;7.48;85.13;100062.11;100326;1288;107989;-84
2022/11/10 00:42:21;;;;;;;50.90;30.90;;;;;;;7.49;85.10;100055.86;101513;1296;138368;-84
2022/11/10 00:45:09;;;;;;;48.80;29.60;;;;;;;7.49;85.01;100062.95;101601;1297;110648;-85
2022/11/10 00:47:54;;;;;;;46.70;29.50;;;;;;;7.50;85.02;100061.20;101000;1289;140244;-83
2022/11/10 00:50:40;;;;;;;51.40;30.50;;;;;;;7.51;84.90;100067.92;100102;1294;97686;-84
2022/11/10 00:53:26;;;;;;;48.40;28.40;;;;;;;7.53;84.94;100061.13;99979;1294;138401;-84
2022/11/10 00:56:11;;;;;;;53.00;30.50;;;;;;;7.55;84.86;100062.66;100066;1291;97783;-85
2022/11/10 00:58:57;;;;;;;48.50;29.00;;;;;;;7.58;85.00;100062.08;99972;1296;137431;-84
2022/11/10 01:01:43;;;;;;;51.90;29.60;;;;;;;7.61;84.90;100064.61;100063;1289;108156;-84
2022/11/10 01:04:29;;;;;;;48.00;29.40;;;;;;;7.64;84.94;100072.67;100042;1296;138759;-83
2022/11/10 01:07:14;;;;;;;50.60;30.10;;;;;;;7.65;84.83;100076.27;100070;1289;107911;-84
2022/11/10 01:10:00;;;;;;;49.40;29.90;;;;;;;7.65;84.80;100068.98;100044;1296;98368;-83
2022/11/10 01:12:45;;;;;;;50.90;29.90;;;;;;;7.67;84.70;100065.33;100104;1289;110977;-85
2022/11/10 01:15:31;;;;;;;53.80;30.20;;;;;;;7.68;84.60;100062.88;100098;1289;107869;-84
2022/11/10 01:18:17;;;;;;;52.60;30.70;;;;;;;7.70;84.69;100065.42;100092;1288;138553;-85
2022/11/10 01:21:03;;;;;;;52.90;31.10;;;;;;;7.72;84.62;100065.04;100134;1288;106632;-85
2022/11/10 01:23:49;;;;;;;50.50;29.50;;;;;;;7.76;84.63;100063.75;99946;1285;139223;-84
2022/11/10 01:26:35;;;;;;;52.60;30.10;;;;;;;7.78;84.59;100062.48;100130;1296;111984;-84
2022/11/10 01:29:20;;;;;;;50.80;30.10;;;;;;;7.80;84.50;100063.12;99977;1288;138935;-83
2022/11/10 01:32:06;;;;;;;48.80;30.10;;;;;;;7.81;84.42;100061.86;100068;1288;97724;-84
2022/11/10 01:34:52;;;;;;;52.60;30.30;;;;;;;7.85;84.58;100060.58;100023;1280;138436;-84
2022/11/10 01:37:39;;;;;;;51.90;29.90;;;;;;;7.87;84.46;100063.62;100142;1294;97938;-85
2022/11/10 01:40:25;;;;;;;50.90;30.10;;;;;;;7.88;84.34;100062.56;100027;1288;138927;-83
2022/11/10 01:43:12;;;;;;;54.20;31.90;;;;;;;7.89;84.18;100063.77;100131;1288;107298;-85
2022/11/10 01:46:01;;;;;;;51.70;31.10;;;;;;;7.88;84.25;100062.92;100092;1289;97934;-85
2022/11/10 01:48:51;;;;;;;51.90;31.30;;;;;;;7.89;84.20;100064.10;100136;1281;107533;-84
2022/11/10 01:51:42;;;;;;;53.30;30.90;;;;;;;7.88;84.20;100066.17;100089;1282;97966;-84
2022/11/10 01:54:30;;;;;;;54.10;31.70;;;;;;;7.90;84.24;100059.94;100145;1282;110509;-85
2022/11/10 01:57:17;;;;;;;51.80;30.90;;;;;;;7.93;84.22;100064.55;100115;1289;106333;-83
2022/11/10 02:00:04;;;;;;;49.00;30.30;;;;;;;7.94;84.15;100062.27;99956;1289;138617;-84
2022/11/10 02:02:56;;;;;;;50.50;31.00;;;;;;;7.95;84.21;100067.09;100040;1291;105909;-84
2022/11/10 02:05:43;;;;;;;51.30;31.60;;;;;;;7.96;84.14;100068.63;99986;1281;138738;-84
2022/11/10 02:08:29;;;;;;;52.70;30.50;;;;;;;7.99;84.21;100068.20;100112;1294;110661;-85
2022/11/10 02:11:15;;;;;;;56.10;32.20;;;;;;;8.01;83.96;100072.65;99945;1295;138516;-84
2022/11/10 02:14:02;;;;;;;53.60;33.10;;;;;;;8.02;83.99;100074.34;100138;1281;99416;-83
2022/11/10 02:16:47;;;;;;;53.90;31.70;;;;;;;8.03;83.94;100073.12;99982;1296;139134;-84
2022/11/10 02:19:41;;;;;;;49.20;30.30;;;;;;;8.04;83.95;100069.44;100107;1289;97803;-84
2022/11/10 02:22:27;;;;;;;57.30;32.50;;;;;;;8.04;83.89;100072.40;100046;1290;139186;-82
2022/11/10 02:25:13;;;;;;;52.30;32.40;;;;;;;8.06;83.89;100076.69;100066;1295;107569;-83
2022/11/10 02:27:59;;;;;;;49.70;30.50;;;;;;;8.07;83.94;100075.61;100051;1288;98372;-85
2022/11/10 02:30:44;;;;;;;53.90;31.40;;;;;;;8.07;83.90;100078.03;100042;1292;107578;-85
2022/11/10 02:33:30;;;;;;;53.10;31.80;;;;;;;8.08;83.73;100074.74;99972;1295;97910;-86
2022/11/10 02:36:16;;;;;;;54.10;32.10;;;;;;;8.09;83.81;100079.56;99929;1288;138664;-83
2022/11/10 02:39:01;;;;;;;54.50;32.70;;;;;;;8.09;83.71;100084.93;99988;1285;107713;-84
2022/11/10 02:41:46;;;;;;;55.90;31.90;;;;;;;8.07;83.78;100085.82;99901;1291;138433;-83
2022/11/10 02:44:32;;;;;;;55.80;32.10;;;;;;;8.08;83.80;100094.82;100120;1288;107042;-84
2022/11/10 02:47:18;;;;;;;52.80;32.30;;;;;;;8.08;83.75;100099.33;100002;1288;138746;-85
2022/11/10 02:50:03;;;;;;;52.40;31.70;;;;;;;8.09;83.70;100106.05;100079;1291;112557;-86
2022/11/10 02:52:49;;;;;;;55.70;33.10;;;;;;;8.07;83.60;100107.64;99962;1289;139175;-85
2022/11/10 02:55:35;;;;;;;53.20;32.10;;;;;;;8.06;83.75;100104.72;100117;1281;98437;-84
2022/11/10 02:58:21;;;;;;;57.20;32.90;;;;;;;8.08;83.86;100106.43;99932;1288;138742;-85
2022/11/10 03:01:07;;;;;;;52.50;31.70;;;;;;;8.08;83.78;100108.69;100036;1291;97890;-82
2022/11/10 03:03:53;;;;;;;55.00;33.00;;;;;;;8.07;83.78;100107.30;100105;1296;111331;-83
2022/11/10 03:06:39;;;;;;;52.80;32.20;;;;;;;8.07;83.81;100100.90;100075;1282;107526;-83
2022/11/10 03:09:25;;;;;;;52.40;32.10;;;;;;;8.08;83.77;100104.87;100110;1291;97818;-83
2022/11/10 03:12:10;;;;;;;57.00;31.60;;;;;;;8.10;83.94;100101.18;99997;1289;138520;-83
2022/11/10 03:14:56;;;;;;;59.60;32.60;;;;;;;8.11;83.86;100102.19;100111;1282;97704;-83
2022/11/10 03:17:42;;;;;;;50.70;32.50;;;;;;;8.13;83.84;100098.52;100064;1288;138384;-85
2022/11/10 03:24:24;;;;;;;53.20;31.80;;;;;;;8.17;83.87;100103.77;99986;1283;138650;-83
2022/11/10 03:27:10;;;;;;;53.90;32.50;;;;;;;8.19;83.80;100109.61;99937;1282;278184;-83
2022/11/10 03:29:56;;;;;;;51.00;31.60;;;;;;;8.21;83.74;100111.83;99960;1291;137334;-84
2022/11/10 03:32:42;;;;;;;56.20;32.00;;;;;;;8.22;83.77;100108.31;100050;1288;111675;-82
2022/11/10 03:35:28;;;;;;;52.50;32.00;;;;;;;8.24;83.66;100115.37;100018;1292;138762;-83
2022/11/10 03:38:14;;;;;;;49.70;31.40;;;;;;;8.25;83.81;100113.77;100051;1282;97826;-84
2022/11/10 03:40:59;;;;;;;54.70;32.10;;;;;;;8.28;83.76;100112.68;99964;1292;142075;-86
2022/11/10 03:44:06;;;;;;;54.90;32.10;;;;;;;8.31;83.83;100115.56;100072;1289;97862;-84
2022/11/10 03:46:52;;;;;;;52.40;31.10;;;;;;;8.32;83.72;100117.60;100012;1296;138870;-84
2022/11/10 03:49:38;;;;;;;54.90;31.60;;;;;;;8.34;83.67;100122.23;100088;1286;107300;-83
2022/11/10 03:52:24;;;;;;;52.50;30.40;;;;;;;8.36;83.72;100123.59;99959;1288;138758;-85
2022/11/10 03:55:12;;;;;;;50.90;29.60;;;;;;;8.40;83.81;100133.70;100142;1291;108907;-84
2022/11/10 03:58:00;;;;;;;46.90;28.40;;;;;;;8.43;83.64;100127.75;100305;1288;98403;-85
2022/11/10 04:00:46;;;;;;;52.80;29.60;;;;;;;8.46;83.59;100132.02;100083;1291;111253;-85
2022/11/10 04:03:32;;;;;;;50.10;29.90;;;;;;;8.47;83.65;100133.73;100077;1295;108368;-85
2022/11/10 04:09:30;;;;;;;49.50;28.30;;;;;;;8.54;83.60;100136.31;99624;1307;108262;-85
2022/11/10 04:18:28;;;;;;;48.00;29.30;;;;;;;8.63;83.53;100135.23;99541;1288;138414;-84
2022/11/10 04:21:14;;;;;;;52.70;30.70;;;;;;;8.66;83.53;100138.80;99617;1303;98038;-85
2022/11/10 04:24:00;;;;;;;48.90;29.10;;;;;;;8.68;83.56;100140.46;99532;1302;139791;-83
2022/11/10 04:26:47;;;;;;;52.70;32.00;;;;;;;8.71;83.63;100148.53;99674;1297;98393;-85
2022/11/10 04:29:31;;;;;;;;;;;;;;;8.70;83.45;100151.31;99554;1300;137789;-85
2022/11/10 04:32:17;;;;;;;54.10;30.70;;;;;;;8.67;83.42;100148.63;99597;1308;107187;-86
2022/11/10 04:35:03;;;;;;;56.40;30.80;;;;;;;8.64;83.60;100148.52;99520;1302;137931;-87
2022/11/10 04:37:49;;;;;;;53.00;30.30;;;;;;;8.64;83.74;100152.55;99717;1297;106712;-87
2022/11/10 04:40:35;;;;;;;50.10;29.20;;;;;;;8.65;83.87;100158.04;99572;1302;139993;-86
2022/11/10 04:43:21;;;;;;;50.00;28.90;;;;;;;8.68;83.86;100165.27;99711;1297;110593;-86
2022/11/10 04:46:21;;;;;;;50.40;29.50;;;;;;;8.70;83.83;100165.19;99804;1289;106575;-86
2022/11/10 04:49:08;;;;;;;49.10;29.30;;;;;;;8.75;83.90;100164.52;100122;1291;98347;-84
2022/11/10 04:51:54;;;;;;;51.60;30.10;;;;;;;8.77;83.82;100161.36;100085;1288;108182;-87
2022/11/10 04:54:39;;;;;;;52.20;31.00;;;;;;;8.80;84.00;100158.52;100026;1288;137876;-87
2022/11/10 04:57:25;;;;;;;54.40;31.20;;;;;;;8.84;84.14;100163.46;100081;1289;112355;-87
2022/11/10 05:00:14;;;;;;;54.20;30.20;;;;;;;8.84;84.20;100161.54;100025;1281;138202;-87
2022/11/10 05:03:01;;;;;;;49.30;28.90;;;;;;;8.87;84.23;100161.78;100246;1291;98378;-86
2022/11/10 05:05:48;;;;;;;47.30;28.40;;;;;;;8.90;84.20;100165.38;100006;1296;138686;-88
2022/11/10 05:08:34;;;;;;;49.00;29.00;;;;;;;8.91;84.28;100158.73;100172;1289;98312;-86
2022/11/10 05:11:19;;;;;;;48.70;28.30;;;;;;;8.94;84.15;100160.73;99974;1288;138967;-83
2022/11/10 05:14:05;;;;;;;48.40;29.10;;;;;;;8.95;84.23;100161.05;100035;1288;108646;-84
2022/11/10 05:16:51;;;;;;;49.90;30.30;;;;;;;8.98;84.44;100168.28;100295;1291;137159;-84
2022/11/10 05:19:37;;;;;;;52.30;30.00;;;;;;;8.99;84.49;100172.92;101193;1281;108016;-83
2022/11/10 05:22:22;;;;;;;52.10;29.40;;;;;;;8.98;84.49;100178.67;100077;1282;97686;-83
2022/11/10 05:25:10;;;;;;;50.90;30.20;;;;;;;8.97;84.53;100181.45;100159;1283;110107;-84
2022/11/10 05:27:55;;;;;;;54.40;31.70;;;;;;;8.98;84.68;100183.54;101609;1295;107829;-84
2022/11/10 05:30:41;;;;;;;48.10;27.90;;;;;;;8.99;84.84;100189.58;101336;1289;138632;-83
2022/11/10 05:33:27;;;;;;;50.50;28.50;;;;;;;9.00;84.81;100196.14;100054;1283;107992;-84
2022/11/10 05:36:12;;;;;;;47.50;28.30;;;;;;;9.01;84.94;100200.97;99976;1289;140689;-83
2022/11/10 05:38:58;;;;;;;47.90;28.60;;;;;;;9.02;84.97;100205.97;100215;1288;110555;-85
2022/11/10 05:41:44;;;;;;;49.90;29.40;;;;;;;9.05;85.16;100210.41;100062;1296;138232;-85
2022/11/10 05:44:30;;;;;;;49.70;29.40;;;;;;;9.06;85.30;100214.34;100208;1291;98360;-85
2022/11/10 05:47:16;;;;;;;51.30;29.60;;;;;;;9.06;85.30;100223.20;100059;1289;137647;-85
2022/11/10 05:50:02;;;;;;;51.60;29.30;;;;;;;9.02;85.38;100229.23;100108;1288;97825;-86
2022/11/10 05:52:51;;;;;;;52.90;30.10;;;;;;;9.00;85.63;100232.02;100001;1296;139023;-85
2022/11/10 05:55:37;;;;;;;50.50;28.40;;;;;;;8.97;85.61;100231.75;100109;1281;107602;-85
2022/11/10 05:58:23;;;;;;;48.30;28.60;;;;;;;8.98;86.04;100240.94;100089;1289;97828;-85
2022/11/10 06:01:09;;;;;;;48.20;28.30;;;;;;;8.96;85.87;100246.15;99951;1288;109219;-86
2022/11/10 06:03:55;;;;;;;53.30;29.40;;;;;;;8.95;86.06;100246.02;100073;1281;98083;-84
2022/11/10 06:06:41;;;;;;;50.50;28.50;;;;;;;8.94;86.29;100251.59;99970;1288;139171;-84
2022/11/10 06:09:27;;;;;;;49.00;27.70;;;;;;;8.94;86.46;100253.49;100039;1289;107166;-85
2022/11/10 06:12:13;;;;;;;50.50;28.40;;;;;;;8.94;86.38;100255.77;100009;1288;138925;-82
2022/11/10 06:14:59;;;;;;;48.30;29.30;;;;;;;8.94;86.58;100259.24;100086;1286;109144;-86
2022/11/10 06:17:45;;;;;;;51.70;28.90;;;;;;;8.94;86.80;100261.83;99963;1289;138549;-79
2022/11/10 06:20:31;;;;;;;50.20;29.30;;;;;;;8.96;86.84;100270.61;100105;1294;111397;-83
2022/11/10 06:23:17;;;;;;;50.80;29.50;;;;;;;8.99;86.98;100272.30;99960;1289;138953;-82
2022/11/10 06:26:03;;;;;;;47.50;28.90;;;;;;;9.00;87.05;100278.35;100062;1296;97807;-87
2022/11/10 06:28:49;;;;;;;48.60;30.00;;;;;;;8.99;86.95;100280.27;99977;1289;138663;-87
2022/11/10 06:31:35;;;;;;;52.40;29.70;;;;;;;8.98;87.04;100286.36;100141;1288;97905;-82
2022/11/10 06:34:21;;;;;;;48.90;28.20;;;;;;;8.96;87.12;100285.53;100122;1289;111274;-84
2022/11/10 06:37:07;;;;;;;47.30;27.60;;;;;;;8.94;87.22;100286.62;100097;1291;107906;-82
2022/11/10 06:39:53;;;;;;;54.60;29.20;;;;;;;8.92;87.24;100293.45;100073;1298;97941;-80
2022/11/10 06:42:38;;;;;;;50.00;28.60;;;;;;;8.90;87.45;100295.23;100002;1296;138226;-83
2022/11/10 06:45:27;;;;;;;51.30;29.30;;;;;;;8.89;87.67;100303.56;100130;1291;97788;-87
2022/11/10 06:48:14;;;;;;;51.40;29.50;;;;;;;8.88;87.84;100305.85;99935;1285;138405;-86
2022/11/10 06:51:03;;;;;;;56.10;29.20;;;;;;;8.89;87.96;100316.41;100049;1291;107509;-88
2022/11/10 06:53:49;;;;;;;54.00;29.80;;;;;;;8.89;88.18;100319.88;99952;1289;138572;-85
2022/11/10 06:56:35;;;;;;;48.60;28.60;;;;;;;8.88;88.31;100327.88;100121;1294;106519;-88
2022/11/10 06:59:21;;;;;;;47.90;27.70;;;;;;;8.88;88.51;100332.56;99974;1291;138580;-76
2022/11/10 07:02:10;;;;;;;45.40;26.90;;;;;;;8.90;88.74;100330.25;99991;1291;112800;-82
2022/11/10 07:04:56;;;;;;;48.50;28.60;;;;;;;8.91;88.78;100332.83;100051;1291;138688;-80
2022/11/10 07:07:42;;;;;;;44.60;27.10;;;;;;;8.95;88.98;100336.37;100015;1281;97810;-85
2022/11/10 07:10:28;;;;;;;47.00;29.10;;;;;;;8.99;89.07;100340.80;99961;1289;139145;-81
2022/11/10 07:13:13;;;;;;;46.20;26.30;;;;;;;9.05;89.21;100344.28;100043;1291;97953;-84
2022/11/10 07:15:59;;;;;;;44.30;25.40;;;;;;;9.07;89.25;100344.23;100072;1277;111810;-85
2022/11/10 07:18:47;;;;;;;43.90;26.40;;;;;;;9.08;89.10;100340.05;99855;1289;139773;-81
2022/11/10 07:21:33;;;;;;;43.30;25.50;;;;;;;9.08;89.17;100342.82;100055;1281;97818;-82
2022/11/10 07:24:20;;;;;;;44.20;25.60;;;;;;;9.09;89.36;100341.23;99950;1291;138434;-83
2022/11/10 07:27:07;;;;;;;48.00;25.90;;;;;;;9.12;89.49;100348.10;100130;1295;97829;-87
2022/11/10 07:29:53;;;;;;;47.90;26.40;;;;;;;9.14;89.57;100350.81;100019;1275;138348;-91
2022/11/10 07:32:39;;;;;;;43.80;26.00;;;;;;;9.18;89.65;100348.50;100318;1295;107737;-85
2022/11/10 07:35:27;;;;;;;45.20;25.50;;;;;;;9.21;89.74;100351.02;99912;1289;138723;-87
2022/11/10 07:38:14;;;;;;;49.00;27.00;;;;;;;9.25;89.89;100353.50;100826;1285;108953;-84
2022/11/10 07:40:58;;;;;;;;;;;;;;;9.31;89.86;100358.55;100507;1289;139415;-83
2022/11/10 07:43:44;;;;;;;44.90;26.00;;;;;;;9.36;89.95;100364.52;100142;1296;111331;-82
2022/11/10 07:46:31;;;;;;;47.60;25.70;;;;;;;9.44;89.97;100370.55;99881;1289;138581;-82
2022/11/10 07:49:17;;;;;;;45.20;26.30;;;;;;;9.48;89.90;100372.88;100041;1288;97718;-82
2022/11/10 07:52:03;;;;;;;41.20;23.90;;;;;;;9.50;89.74;100375.41;100747;1292;108231;-84
2022/11/10 07:54:49;;;;;;;44.70;26.10;;;;;;;9.50;89.60;100375.41;100762;1292;97829;-86
2022/11/10 07:57:35;;;;;;;43.80;25.90;;;;;;;9.51;89.68;100377.84;100090;1291;110907;-83
2022/11/10 08:00:22;;;;;;;43.90;25.30;;;;;;;9.53;89.71;100380.41;99955;1289;139734;-88
2022/11/10 08:03:10;;;;;;;43.90;25.40;;;;;;;9.55;89.72;100382.43;100038;1291;98310;-86
2022/11/10 08:05:57;;;;;;;41.90;24.60;;;;;;;9.55;89.69;100381.20;99924;1289;138530;-89
2022/11/10 08:08:42;;;;;;;42.20;25.50;;;;;;;9.56;89.90;100392.30;100055;1295;97916;-86
2022/11/10 08:11:29;;;;;;;40.40;24.70;;;;;;;9.59;89.96;100390.66;99951;1289;139058;-82
2022/11/10 08:14:15;;;;;;;42.20;25.40;;;;;;;9.60;89.79;100399.83;100047;1286;106930;-85
2022/11/10 08:17:01;;;;;;;43.30;24.50;;;;;;;9.62;89.94;100410.70;101142;1297;139207;-86
2022/11/10 08:19:47;;;;;;;41.10;25.00;;;;;;;9.66;90.01;100414.23;101574;1289;108101;-85
2022/11/10 08:22:32;;;;;;;44.60;25.80;;;;;;;9.70;90.08;100412.59;99882;1289;138987;-83
2022/11/10 08:25:34;;;;;;;42.50;25.10;;;;;;;9.73;90.09;100411.30;100055;1289;110653;-83
2022/11/10 08:28:21;;;;;;;39.30;23.80;;;;;;;9.75;89.82;100413.52;100029;1294;108737;-82
2022/11/10 08:31:07;;;;;;;41.00;25.00;;;;;;;9.76;89.76;100415.59;100133;1294;97789;-81
2022/11/10 08:33:58;;;;;;;39.30;24.40;;;;;;;9.76;89.82;100416.26;100124;1289;107455;-81
2022/11/10 08:36:43;;;;;;;44.30;24.50;;;;;;;9.77;89.74;100425.44;99857;1289;138434;-81
2022/11/10 08:39:29;;;;;;;39.90;23.50;;;;;;;9.79;89.93;100428.69;100901;1289;112405;-83
2022/11/10 08:42:23;;;;;;;42.50;23.80;;;;;;;9.79;89.95;100423.48;100944;1295;138612;-90
2022/11/10 08:45:13;;;;;;;41.80;23.80;;;;;;;9.84;90.07;100432.70;100100;1288;97718;-86
2022/11/10 08:48:00;;;;;;;39.90;22.70;;;;;;;9.89;90.02;100439.89;99915;1289;138981;-86
2022/11/10 08:50:46;;;;;;;41.40;23.40;;;;;;;9.93;89.92;100446.20;100015;1289;97868;-86
2022/11/10 08:53:32;;;;;;;38.40;22.60;;;;;;;9.97;89.86;100450.63;99986;1292;138449;-85
2022/11/10 08:56:17;;;;;;;37.70;22.30;;;;;;;9.99;89.95;100456.27;100043;1294;107079;-87
2022/11/10 08:59:03;;;;;;;37.40;23.10;;;;;;;10.02;89.74;100465.06;99990;1289;138755;-88
2022/11/10 09:01:49;;;;;;;38.00;22.30;;;;;;;10.06;90.02;100468.97;99995;1295;107373;-86
2022/11/10 09:04:36;;;;;;;38.00;22.30;;;;;;;10.10;90.03;100470.77;100024;1289;97817;-93
2022/11/10 09:07:21;;;;;;;;;;;;;;;10.13;89.78;100471.55;100148;1289;112258;-89
2022/11/10 09:10:08;;;;;;;39.40;22.00;;;;;;;10.13;89.63;100476.05;99928;1295;107952;-89
2022/11/10 09:12:54;;;;;;;41.80;23.70;;;;;;;10.15;89.70;100474.62;100047;1289;138582;-90
2022/11/10 09:15:41;;;;;;;36.10;21.90;;;;;;;10.17;89.63;100475.09;100158;1281;108427;-87
2022/11/10 09:18:28;;;;;;;40.60;23.00;;;;;;;10.17;89.68;100480.48;99948;1288;140118;-86
2022/11/10 09:21:14;;;;;;;34.50;21.70;;;;;;;10.20;89.68;100486.83;100125;1288;110424;-85
2022/11/10 09:23:59;;;;;;;37.00;22.30;;;;;;;10.21;89.52;100487.15;100004;1288;138734;-86
2022/11/10 09:26:46;;;;;;;36.40;21.80;;;;;;;10.22;89.61;100492.53;100139;1291;97695;-87
2022/11/10 09:29:32;;;;;;;35.20;21.20;;;;;;;10.21;89.41;100490.46;100334;1287;138540;-83
2022/11/10 09:32:18;;;;;;;37.90;23.20;;;;;;;10.24;89.63;100486.06;100056;1297;97847;-82
2022/11/10 09:35:05;;;;;;;33.90;21.60;;;;;;;10.29;89.67;100490.45;99937;1289;139401;-81
2022/11/10 09:37:50;;;;;;;36.70;22.50;;;;;;;10.35;89.78;100494.46;100028;1283;108132;-82
2022/11/10 09:40:51;;;;;;;38.90;22.30;;;;;;;10.38;89.59;100497.65;99990;1281;97812;-81
2022/11/10 09:43:44;;;;;;;36.40;21.90;;;;;;;10.36;89.31;100505.71;100036;1288;108154;-84
2022/11/10 09:46:36;;;;;;;37.40;22.10;;;;;;;10.39;89.44;100501.82;100016;1289;97842;-84
2022/11/10 09:49:33;;;;;;;35.60;21.90;;;;;;;10.43;89.74;100502.40;100061;1297;113350;-81
2022/11/10 09:52:21;;;;;;;30.40;20.10;;;;;;;10.48;89.66;100506.80;99942;1288;106756;-81
2022/11/10 09:55:26;;;;;;;35.60;21.80;;;;;;;10.51;89.59;100509.14;99960;1282;138404;-85
2022/11/10 09:58:14;;;;;;;34.30;21.70;;;;;;;10.52;89.41;100511.36;100006;1281;106089;-87
2022/11/10 10:01:10;;;;;;;34.00;20.90;;;;;;;10.54;89.45;100515.83;99815;1288;140973;-84
2022/11/10 10:04:05;;;;;;;32.00;20.00;;;;;;;10.56;89.59;100520.95;101599;1287;112495;-87
2022/11/10 10:06:59;;;;;;;33.50;20.70;;;;;;;10.56;89.33;100521.34;99959;1289;138862;-85
2022/11/10 10:10:04;;;;;;;33.40;19.70;;;;;;;10.57;89.62;100518.67;100077;1289;97679;-86
2022/11/10 10:13:10;;;;;;;30.50;19.20;;;;;;;10.64;89.58;100515.55;99979;1281;140032;-86
2022/11/10 10:16:10;;;;;;;34.00;19.70;;;;;;;10.75;89.62;100528.46;100022;1296;97820;-79
2022/11/10 10:19:02;;;;;;;30.70;19.50;;;;;;;10.83;89.48;100534.33;99871;1289;139673;-70
2022/11/10 10:22:04;;;;;;;31.10;19.60;;;;;;;10.86;89.22;100531.95;100043;1289;106808;-79
2022/11/10 10:24:54;;;;;;;32.10;20.50;;;;;;;10.91;89.24;100534.42;100018;1288;138802;-83
2022/11/10 10:27:40;;;;;;;32.90;19.40;;;;;;;11.01;89.36;100530.13;100191;1288;108764;-86
2022/11/10 10:30:26;;;;;;;28.90;19.10;;;;;;;11.14;89.40;100534.27;99950;1288;138757;-84
2022/11/10 10:33:17;;;;;;;28.80;17.70;;;;;;;11.22;88.86;100532.48;100122;1288;112223;-84
2022/11/10 10:36:07;;;;;;;31.50;17.90;;;;;;;11.25;88.67;100529.77;101472;1289;139297;-86
2022/11/10 10:38:55;;;;;;;27.40;17.70;;;;;;;11.32;88.47;100529.73;100681;1289;98260;-85
2022/11/10 10:41:45;;;;;;;28.90;18.00;;;;;;;11.34;87.94;100530.02;100012;1289;140308;-90
2022/11/10 10:44:31;;;;;;;29.60;17.80;;;;;;;11.38;87.77;100538.95;100008;1289;99281;-90
2022/11/10 10:47:17;;;;;;;27.90;17.90;;;;;;;11.39;87.51;100539.42;99958;1289;138710;-82
2022/11/10 10:50:21;;;;;;;26.00;17.90;;;;;;;11.37;87.24;100532.86;100069;1289;106857;-85
2022/11/10 10:53:15;;;;;;;26.30;17.40;;;;;;;11.41;87.20;100532.41;99916;1288;140682;-83
2022/11/10 10:56:05;;;;;;;28.00;17.50;;;;;;;11.44;86.90;100532.48;100068;1294;108204;-86
2022/11/10 10:58:55;;;;;;;28.40;16.80;;;;;;;11.46;87.01;100533.63;100006;1297;138987;-85
2022/11/10 11:01:43;;;;;;;26.30;16.70;;;;;;;11.52;86.90;100536.77;101617;1288;111169;-86
2022/11/10 11:04:32;;;;;;;24.20;16.10;;;;;;;11.58;86.65;100528.91;101611;1296;107530;-87
2022/11/10 11:07:24;;;;;;;26.40;16.50;;;;;;;11.63;86.61;100536.59;101444;1295;96112;-85
2022/11/10 11:10:23;;;;;;;24.90;16.20;;;;;;;11.64;86.29;100540.73;100079;1296;107098;-85
2022/11/10 11:13:21;;;;;;;23.80;15.90;;;;;;;11.59;85.91;100541.96;99951;1289;140378;-79
2022/11/10 11:16:08;;;;;;;23.60;15.20;;;;;;;11.57;86.18;100542.19;100064;1288;111160;-82
2022/11/10 11:18:55;;;;;;;22.80;15.90;;;;;;;11.61;86.24;100545.02;101410;1288;139339;-82
2022/11/10 11:21:51;;;;;;;24.00;15.30;;;;;;;11.67;86.19;100546.73;101556;1289;95992;-82
2022/11/10 11:24:43;;;;;;;23.70;14.80;;;;;;;11.72;86.19;100545.20;100094;1279;138685;-84
2022/11/10 11:27:38;;;;;;;25.50;15.30;;;;;;;11.75;85.82;100547.36;100043;1289;97722;-89
2022/11/10 11:30:25;;;;;;;25.50;15.60;;;;;;;11.73;85.60;100545.50;99959;1290;138626;-86
2022/11/10 11:33:32;;;;;;;24.50;15.60;;;;;;;11.67;85.44;100545.85;100077;1295;108203;-86
2022/11/10 11:36:27;;;;;;;25.70;15.50;;;;;;;11.67;85.42;100552.14;99982;1290;139433;-87
2022/11/10 11:39:36;;;;;;;23.10;15.50;;;;;;;11.65;85.50;100558.13;101546;1289;109015;-90
2022/11/10 11:42:29;;;;;;;22.20;14.80;;;;;;;11.63;85.52;100560.98;101429;1295;138906;-86
2022/11/10 11:45:25;;;;;;;24.10;14.70;;;;;;;11.64;85.46;100560.93;100483;1288;111168;-81
2022/11/10 11:48:32;;;;;;;20.80;14.80;;;;;;;11.67;85.29;100558.06;99941;1288;138934;-82
2022/11/10 11:51:26;;;;;;;23.00;14.60;;;;;;;11.66;85.09;100564.00;100017;1294;98307;-83
2022/11/10 11:54:33;;;;;;;25.50;15.50;;;;;;;11.69;85.06;100567.25;99902;1289;138529;-85
2022/11/10 11:57:30;;;;;;;19.00;14.10;;;;;;;11.74;85.04;100561.67;99962;1290;97889;-84
2022/11/10 12:00:25;;;;;;;25.40;14.60;;;;;;;11.78;84.81;100570.60;99924;1289;138425;-87
2022/11/10 12:03:39;;;;;;;21.20;13.40;;;;;;;11.86;84.97;100569.88;99974;1295;108638;-87
2022/11/10 12:06:34;;;;;;;23.80;14.00;;;;;;;11.94;84.53;100569.06;99866;1288;138656;-81
2022/11/10 12:09:27;;;;;;;23.60;13.60;;;;;;;11.95;84.50;100574.61;99990;1288;107379;-79
2022/11/10 12:12:36;;;;;;;22.00;13.20;;;;;;;11.97;84.09;100567.56;99903;1295;138584;-83
2022/11/10 12:15:33;;;;;;;21.00;11.70;;;;;;;11.98;84.00;100581.48;100074;1289;111955;-83
2022/11/10 12:18:29;;;;;;;20.30;12.70;;;;;;;12.04;83.86;100577.64;101204;1295;138826;-83
2022/11/10 12:21:24;;;;;;;19.20;12.50;;;;;;;12.06;83.44;100580.55;99986;1288;97807;-82
2022/11/10 12:24:27;;;;;;;23.70;12.40;;;;;;;12.05;83.43;100584.55;99838;1289;138628;-83
2022/11/10 12:27:18;;;;;;;20.60;12.70;;;;;;;12.03;83.25;100596.84;100035;1289;98026;-85
2022/11/10 12:30:09;;;;;;;19.40;12.80;;;;;;;12.03;83.35;100601.19;100318;1282;139618;-85
2022/11/10 12:33:02;;;;;;;21.00;12.70;;;;;;;12.03;83.30;100596.65;99944;1286;107851;-81
2022/11/10 12:35:48;;;;;;;21.00;12.30;;;;;;;12.03;83.17;100600.31;100126;1289;138640;-80
2022/11/10 12:38:44;;;;;;;18.70;11.90;;;;;;;12.02;83.05;100604.17;99931;1289;108543;-83
2022/11/10 12:41:33;;;;;;;18.50;12.20;;;;;;;12.00;83.18;100611.19;99854;1289;138986;-83
2022/11/10 12:44:27;;;;;;;18.60;11.30;;;;;;;12.03;83.32;100620.02;99939;1289;112338;-67
2022/11/10 12:47:20;;;;;;;21.00;11.40;;;;;;;12.02;83.24;100620.21;101111;1289;139624;-83
2022/11/10 12:50:25;;;;;;;24.20;12.10;;;;;;;12.00;83.16;100621.13;100940;1289;95910;-87
2022/11/10 12:53:18;;;;;;;16.10;11.10;;;;;;;12.00;83.07;100623.41;99878;1289;139315;-84
2022/11/10 12:56:10;;;;;;;21.00;11.60;;;;;;;11.96;82.71;100622.50;99985;1289;97915;-84